Time;durP1;ratioP1;P1;durP2;ratioP2;P2;SDS_P1;SDS_P2;PMS_P1;PMS_P2;Temp;Humidity;BMP_temperature;BMP_pressure;BME280_temperature;BME280_humidity;BME280_pressure;Samples;Min_cycle;Max_cycle;Signal;HPM_P1;HPM_P2
2022/01/03 00:01:19;;;;;;;72.50;38.45;;;;;;;7.69;71.61;99989.38;5013428;28;20083;-84
2022/01/03 00:03:45;;;;;;;87.72;37.60;;;;;;;7.97;71.77;100052.28;5013500;28;20021;-85
2022/01/03 00:06:11;;;;;;;86.30;36.80;;;;;;;6.87;71.54;99886.03;5013354;28;20026;-84
2022/01/03 00:08:42;;;;;;;138.57;35.22;;;;;;;7.82;71.37;100035.34;4995579;28;20030;-85
2022/01/03 00:11:09;;;;;;;90.22;34.25;;;;;;;7.77;71.76;100042.88;5013013;28;20096;-81
2022/01/03 00:13:34;;;;;;;134.20;36.22;;;;;;;6.65;71.58;99915.22;5013089;28;20499;-84
2022/01/03 00:16:00;;;;;;;86.80;29.27;;;;;;;7.63;71.45;100073.09;5013267;28;20025;-85
2022/01/03 00:18:25;;;;;;;112.13;30.67;;;;;;;7.16;72.00;99975.13;5013365;28;20414;-84
2022/01/03 00:21:00;;;;;;;89.55;31.27;;;;;;;6.19;71.41;99846.09;5013014;28;20033;-85
2022/01/03 00:23:28;;;;;;;58.13;25.05;;;;;;;7.01;72.25;99987.09;5013151;28;20583;-84
2022/01/03 00:26:02;;;;;;;98.22;27.98;;;;;;;6.26;71.88;99886.50;5012924;28;20026;-85
2022/01/03 00:28:59;;;;;;;58.95;28.40;;;;;;;6.23;71.90;99881.53;5012895;28;20511;-85
2022/01/03 00:31:33;;;;;;;66.95;30.08;;;;;;;7.25;71.64;100031.22;4995298;28;20026;-86
2022/01/03 00:33:59;;;;;;;44.42;24.17;;;;;;;6.81;71.75;99949.59;5012795;28;21071;-85
2022/01/03 00:36:28;;;;;;;49.28;23.52;;;;;;;6.52;71.28;99899.00;5012805;28;20396;-85
2022/01/03 00:38:55;;;;;;;76.38;24.38;;;;;;;7.23;71.63;100022.66;4995202;28;20411;-84
2022/01/03 00:41:21;;;;;;;29.38;19.75;;;;;;;6.18;71.57;99861.97;5012822;28;20029;-85
2022/01/03 00:43:48;;;;;;;62.97;21.40;;;;;;;6.55;71.38;99914.44;4995167;28;20438;-85
2022/01/03 00:46:16;;;;;;;56.05;21.35;;;;;;;7.11;70.58;100006.25;5012758;28;20411;-85
2022/01/03 00:48:43;;;;;;;59.90;20.80;;;;;;;6.70;71.10;99939.28;5012570;28;20056;-84
2022/01/03 00:51:09;;;;;;;120.88;21.88;;;;;;;5.50;70.58;99748.56;4994975;28;20029;-84
2022/01/03 00:53:35;;;;;;;95.57;20.58;;;;;;;6.75;70.82;99955.41;5012637;28;20041;-84
2022/01/03 00:56:02;;;;;;;39.60;15.88;;;;;;;6.92;71.27;99993.22;4994890;28;20495;-85
2022/01/03 00:58:33;;;;;;;35.67;15.90;;;;;;;6.91;70.92;99981.06;5012544;28;20034;-85
2022/01/03 01:01:00;;;;;;;40.03;15.55;;;;;;;5.97;71.17;99852.50;5012330;28;20103;-85
2022/01/03 01:03:34;;;;;;;45.63;16.27;;;;;;;6.80;70.62;99958.44;4994562;28;20022;-85
2022/01/03 01:06:02;;;;;;;43.58;18.13;;;;;;;6.95;70.94;99964.03;5012452;28;20049;-87
2022/01/03 01:08:28;;;;;;;47.17;16.77;;;;;;;5.66;70.19;99748.81;5011668;28;20045;-84
2022/01/03 01:10:58;;;;;;;25.67;15.38;;;;;;;5.99;70.77;99813.03;5011840;28;20125;-85
2022/01/03 01:13:23;;;;;;;34.72;17.17;;;;;;;5.75;70.31;99755.81;5012192;28;20057;-85
2022/01/03 01:15:49;;;;;;;27.42;17.70;;;;;;;6.93;70.26;99950.22;5012066;28;20414;-85
2022/01/03 01:18:15;;;;;;;35.67;19.75;;;;;;;6.42;70.56;99861.47;5011934;28;20029;-84
2022/01/03 01:20:41;;;;;;;38.40;20.23;;;;;;;6.64;69.65;99909.16;5012017;28;20521;-83
2022/01/03 01:23:09;;;;;;;26.73;18.38;;;;;;;6.61;69.61;99903.38;4994477;28;20054;-84
2022/01/03 01:28:07;;;;;;;23.85;17.77;;;;;;;6.72;69.73;99947.84;5012155;28;20030;-85
2022/01/03 01:30:36;;;;;;;23.75;16.13;;;;;;;6.67;70.01;99934.28;5011820;28;20030;-84
2022/01/03 01:33:08;;;;;;;26.35;16.45;;;;;;;6.68;69.36;99939.38;5011601;28;20029;-85
2022/01/03 01:35:50;;;;;;;19.88;15.05;;;;;;;6.63;69.56;99935.53;4994407;28;20033;-84
2022/01/03 01:38:19;;;;;;;26.48;16.80;;;;;;;6.54;69.29;99936.41;5012074;28;20029;-83
2022/01/03 01:40:51;;;;;;;21.27;16.00;;;;;;;6.16;69.35;99888.31;5011721;28;20056;-84
2022/01/03 01:43:37;;;;;;;22.85;17.15;;;;;;;6.36;68.94;99925.81;5011643;28;20101;-83
2022/01/03 01:46:15;;;;;;;20.00;15.45;;;;;;;6.28;69.41;99942.25;5011548;28;20430;-86
2022/01/03 01:48:43;;;;;;;19.98;15.43;;;;;;;5.53;69.01;99850.41;5011560;28;20026;-85
2022/01/03 01:51:11;;;;;;;15.55;11.90;;;;;;;6.24;68.98;99948.75;5011648;28;20026;-85
2022/01/03 01:53:42;;;;;;;21.98;12.25;;;;;;;5.89;68.98;99901.28;5011590;28;20037;-82
2022/01/03 01:56:15;;;;;;;19.70;13.68;;;;;;;6.09;68.97;99942.28;4993999;28;20514;-85
2022/01/03 01:59:12;;;;;;;19.30;12.93;;;;;;;6.04;69.08;99931.38;4994079;28;20041;-84
2022/01/03 02:02:06;;;;;;;17.20;12.10;;;;;;;5.89;69.09;99903.88;5004400;28;20076;-85
2022/01/03 02:04:59;;;;;;;13.73;11.73;;;;;;;5.92;69.29;99898.41;5011640;28;20022;-83
2022/01/03 02:07:53;;;;;;;23.70;17.50;;;;;;;5.97;69.37;99902.28;5011438;28;20053;-83
2022/01/03 02:10:24;;;;;;;21.88;15.88;;;;;;;4.58;69.07;99653.97;5011445;28;20064;-85
2022/01/03 02:12:50;;;;;;;20.75;15.80;;;;;;;4.72;69.21;99711.94;5011517;28;20491;-84
2022/01/03 02:15:18;;;;;;;17.60;14.20;;;;;;;4.95;69.03;99691.56;5011440;28;20088;-83
2022/01/03 02:17:48;;;;;;;18.90;15.50;;;;;;;5.71;68.97;99789.31;4993813;28;20418;-83
2022/01/03 02:20:15;;;;;;;19.35;14.65;;;;;;;6.10;68.79;99841.69;5011997;28;20033;-85
2022/01/03 02:22:42;;;;;;;17.13;13.30;;;;;;;5.16;68.14;99696.63;4997701;28;20029;-84
2022/01/03 02:25:10;;;;;;;16.50;14.13;;;;;;;6.07;68.30;99828.88;5015453;28;20018;-85
2022/01/03 02:27:37;;;;;;;18.15;14.20;;;;;;;5.65;68.42;99761.06;5015304;28;20040;-82
2022/01/03 02:30:08;;;;;;;17.83;13.82;;;;;;;5.78;68.23;99776.47;5015320;28;20025;-83
2022/01/03 02:32:34;;;;;;;16.42;14.15;;;;;;;4.74;68.44;99613.22;5015059;28;20030;-85
2022/01/03 02:34:59;;;;;;;16.10;13.52;;;;;;;5.89;68.24;99785.97;5015140;28;20095;-85
2022/01/03 02:37:25;;;;;;;16.40;13.48;;;;;;;5.13;68.33;99667.31;5014995;28;20399;-82
2022/01/03 02:39:52;;;;;;;18.92;15.25;;;;;;;5.08;68.09;99675.56;5015057;28;20032;-82
2022/01/03 02:42:23;;;;;;;19.27;16.90;;;;;;;6.15;68.16;99818.50;5014963;28;20583;-85
2022/01/03 02:45:17;;;;;;;19.90;16.63;;;;;;;5.17;67.99;99656.41;5014888;28;20029;-83
2022/01/03 02:47:45;;;;;;;18.65;15.65;;;;;;;6.02;68.69;99815.38;5013864;28;20037;-82
2022/01/03 02:50:13;;;;;;;16.70;14.52;;;;;;;5.66;68.24;99764.53;5014838;28;20137;-82
2022/01/03 02:52:38;;;;;;;15.82;14.13;;;;;;;5.35;68.41;99719.38;5014832;28;20037;-82
2022/01/03 02:55:05;;;;;;;19.50;13.98;;;;;;;5.83;68.28;99810.94;5014775;28;20026;-83
2022/01/03 02:57:40;;;;;;;16.00;12.77;;;;;;;5.80;68.39;99819.09;5014681;28;20410;-84
2022/01/03 03:00:09;;;;;;;13.77;11.43;;;;;;;5.26;68.37;99722.81;5014469;28;20030;-84
2022/01/03 03:02:34;;;;;;;15.45;13.02;;;;;;;5.00;68.33;99663.19;5014754;28;20065;-85
2022/01/03 03:05:02;;;;;;;13.77;11.40;;;;;;;5.82;68.27;99816.31;5014580;28;20061;-86
2022/01/03 03:07:29;;;;;;;14.57;11.30;;;;;;;5.74;68.65;99789.03;5014627;28;20061;-85
2022/01/03 03:09:55;;;;;;;15.88;12.85;;;;;;;5.75;68.46;99802.97;5014172;28;20029;-83
2022/01/03 03:12:22;;;;;;;12.93;11.38;;;;;;;5.75;68.50;99795.94;5014175;28;20032;-82
2022/01/03 03:14:48;;;;;;;14.15;12.05;;;;;;;4.92;68.39;99676.13;5014242;28;20034;-83
2022/01/03 03:17:18;;;;;;;15.77;13.10;;;;;;;4.45;68.45;99612.38;5014395;28;20104;-84
2022/01/03 03:20:04;;;;;;;17.67;14.18;;;;;;;4.68;68.17;99644.34;4996824;28;20441;-83
2022/01/03 03:22:30;;;;;;;14.65;13.07;;;;;;;4.53;68.51;99625.63;5014265;28;20060;-82
2022/01/03 03:25:11;;;;;;;15.67;13.03;;;;;;;5.54;68.72;99799.69;5014336;28;20018;-82
2022/01/03 03:27:43;;;;;;;15.07;12.55;;;;;;;5.03;68.49;99710.00;5014341;28;20487;-83
2022/01/03 03:30:19;;;;;;;15.85;13.25;;;;;;;5.20;68.25;99725.97;5014102;28;20057;-85
2022/01/03 03:32:46;;;;;;;19.50;15.38;;;;;;;5.63;68.31;99770.88;5012754;28;20056;-83
2022/01/03 03:35:11;;;;;;;20.55;15.57;;;;;;;4.24;68.34;99569.88;5013949;28;20553;-83
2022/01/03 03:37:37;;;;;;;17.05;14.82;;;;;;;5.01;68.56;99698.84;5014013;28;20033;-84
2022/01/03 03:40:04;;;;;;;17.88;14.48;;;;;;;5.59;68.70;99789.63;5014056;28;20418;-84
2022/01/03 03:42:29;;;;;;;20.85;16.13;;;;;;;5.28;68.66;99741.84;5014145;28;20033;-83
2022/01/03 03:44:55;;;;;;;26.17;18.70;;;;;;;3.92;68.63;99546.63;5013852;28;20022;-83
2022/01/03 03:47:20;;;;;;;23.85;16.70;;;;;;;4.39;68.60;99655.59;5014011;28;20025;-86
2022/01/03 03:49:46;;;;;;;34.55;14.90;;;;;;;5.58;68.95;99843.78;5013850;28;20483;-83
2022/01/03 03:52:11;;;;;;;25.35;16.25;;;;;;;4.91;69.39;99720.75;4996088;28;20117;-84
2022/01/03 03:54:37;;;;;;;30.95;16.40;;;;;;;5.58;69.07;99822.03;5013606;28;20026;-85
2022/01/03 03:57:08;;;;;;;19.80;15.02;;;;;;;5.65;69.11;99816.06;5013603;28;20037;-84
2022/01/03 03:59:34;;;;;;;36.53;18.77;;;;;;;4.95;69.24;99691.56;5013484;28;20030;-85
2022/01/03 04:02:00;;;;;;;24.10;15.05;;;;;;;5.53;69.35;99771.84;5013498;28;20026;-83
2022/01/03 04:04:26;;;;;;;39.25;15.60;;;;;;;5.00;69.34;99709.47;5013178;28;20084;-83
2022/01/03 04:06:52;;;;;;;34.90;14.80;;;;;;;5.79;69.25;99798.28;5013050;28;20022;-83
2022/01/03 04:09:18;;;;;;;87.55;19.13;;;;;;;5.62;69.44;99765.78;5013127;28;20025;-84
2022/01/03 04:11:43;;;;;;;53.33;16.00;;;;;;;5.23;69.78;99718.69;4995728;28;20112;-83
2022/01/03 04:14:09;;;;;;;32.17;14.73;;;;;;;4.89;70.13;99676.41;5013269;28;20117;-82
2022/01/03 04:16:35;;;;;;;88.68;16.75;;;;;;;4.96;70.28;99661.00;5013664;28;20053;-85
2022/01/03 04:19:00;;;;;;;47.05;15.00;;;;;;;5.49;70.33;99762.63;5013214;28;20037;-82
2022/01/03 04:21:27;;;;;;;74.78;16.83;;;;;;;4.18;70.04;99533.84;5013101;28;20034;-84
2022/01/03 04:23:53;;;;;;;107.22;16.55;;;;;;;5.86;70.20;99789.69;5013369;28;20018;-87
2022/01/03 04:26:19;;;;;;;61.60;14.70;;;;;;;5.48;70.54;99740.03;4995417;28;20030;-81
2022/01/03 04:28:45;;;;;;;41.72;16.73;;;;;;;4.54;70.71;99582.84;5012950;28;20064;-82
2022/01/03 04:31:10;;;;;;;54.25;17.45;;;;;;;5.05;70.32;99673.22;5012905;28;20041;-86
2022/01/03 04:33:36;;;;;;;120.30;22.05;;;;;;;4.69;70.67;99628.50;5012683;28;20061;-84
2022/01/03 04:36:03;;;;;;;102.97;20.73;;;;;;;5.82;71.12;99800.59;5012896;28;20415;-84
2022/01/03 04:38:29;;;;;;;103.93;22.20;;;;;;;5.63;71.05;99749.91;5012782;28;20061;-85
2022/01/03 04:40:54;;;;;;;70.72;16.27;;;;;;;4.77;70.67;99617.34;5012731;28;20537;-86
2022/01/03 04:43:20;;;;;;;47.40;16.27;;;;;;;5.13;70.75;99688.25;5012471;28;20026;-83
2022/01/03 04:45:45;;;;;;;28.95;11.13;;;;;;;4.88;71.03;99693.06;5012534;28;20026;-85
2022/01/03 04:48:11;;;;;;;24.73;10.95;;;;;;;5.38;70.68;99750.50;5012501;28;20034;-82
2022/01/03 04:50:36;;;;;;;31.35;11.35;;;;;;;5.63;71.16;99768.25;5012447;28;20025;-81
2022/01/03 04:53:02;;;;;;;40.92;10.57;;;;;;;4.50;70.43;99576.22;4994823;28;20025;-83
2022/01/03 04:55:27;;;;;;;24.55;10.13;;;;;;;4.49;70.45;99585.03;5012551;28;20076;-81
2022/01/03 04:57:53;;;;;;;47.42;11.48;;;;;;;5.55;70.28;99769.91;5012551;28;20026;-85
2022/01/03 05:00:19;;;;;;;23.02;12.88;;;;;;;5.49;70.69;99763.44;5012401;28;20026;-81
2022/01/03 05:02:45;;;;;;;35.20;13.35;;;;;;;5.48;70.97;99771.44;5012272;28;20025;-82
2022/01/03 05:05:11;;;;;;;48.28;17.27;;;;;;;4.85;70.89;99656.72;5012261;28;20030;-85
2022/01/03 05:07:37;;;;;;;55.15;17.10;;;;;;;5.01;70.81;99675.31;5012175;28;20030;-82
2022/01/03 05:10:03;;;;;;;70.90;18.80;;;;;;;4.57;70.77;99598.25;5012171;28;20034;-83
2022/01/03 05:12:29;;;;;;;94.45;22.02;;;;;;;5.18;70.84;99733.13;5012247;28;20030;-82
2022/01/03 05:14:54;;;;;;;147.70;26.00;;;;;;;5.18;71.03;99671.16;5012015;28;20033;-82
2022/01/03 05:17:20;;;;;;;56.00;18.23;;;;;;;4.56;71.61;99596.59;5011974;28;20411;-82
2022/01/03 05:19:45;;;;;;;101.72;21.27;;;;;;;5.21;71.29;99681.38;5012034;28;20053;-84
2022/01/03 05:22:10;;;;;;;114.72;23.90;;;;;;;5.50;71.09;99728.44;5012134;28;20506;-82
2022/01/03 05:24:37;;;;;;;39.78;17.42;;;;;;;5.68;71.75;99791.41;5012077;28;20029;-88
2022/01/03 05:27:03;;;;;;;92.22;21.75;;;;;;;4.73;71.04;99619.44;5012048;28;20033;-88
2022/01/03 05:29:29;;;;;;;125.83;22.60;;;;;;;5.00;71.55;99664.97;5012232;28;20032;-87
2022/01/03 05:31:55;;;;;;;149.50;24.35;;;;;;;5.64;71.44;99754.19;5012086;28;20026;-88
2022/01/03 05:34:21;;;;;;;99.20;22.45;;;;;;;4.28;71.52;99579.09;5011662;28;20121;-88
2022/01/03 05:36:46;;;;;;;115.32;22.45;;;;;;;3.67;71.83;99443.47;5011735;28;20029;-88
2022/01/03 05:39:13;;;;;;;59.58;19.27;;;;;;;5.04;71.84;99655.88;4994298;28;20483;-87
2022/01/03 05:41:38;;;;;;;113.13;21.38;;;;;;;5.42;71.80;99707.38;5012054;28;20072;-88
2022/01/03 05:44:05;;;;;;;122.53;24.23;;;;;;;5.61;72.05;99730.91;5011842;28;20021;-88
2022/01/03 05:46:30;;;;;;;63.47;21.38;;;;;;;4.64;72.41;99606.38;5011670;28;20032;-88
2022/01/03 05:48:56;;;;;;;64.33;17.00;;;;;;;4.94;72.21;99653.28;5011709;28;20030;-88
2022/01/03 05:51:22;;;;;;;37.35;17.45;;;;;;;4.73;72.13;99636.91;5011770;28;20026;-88
2022/01/03 05:53:47;;;;;;;60.20;15.70;;;;;;;5.62;71.86;99763.97;5011715;28;20065;-88
2022/01/03 05:56:13;;;;;;;70.43;19.05;;;;;;;5.63;71.73;99746.47;5011222;28;20060;-89
2022/01/03 05:58:38;;;;;;;69.90;23.67;;;;;;;5.65;71.93;99747.16;5011753;28;20030;-88
2022/01/03 06:01:04;;;;;;;32.95;19.50;;;;;;;4.79;71.51;99607.59;5011515;28;20506;-87
2022/01/03 06:03:35;;;;;;;22.98;14.50;;;;;;;5.69;71.54;99754.59;4993693;28;20026;-89
2022/01/03 06:08:26;;;;;;;30.05;15.77;;;;;;;4.70;71.12;99603.19;5011277;28;20418;-88
2022/01/03 06:10:52;;;;;;;83.47;22.80;;;;;;;4.94;70.95;99642.00;5011602;28;20030;-89
2022/01/03 06:13:18;;;;;;;37.70;20.50;;;;;;;5.52;71.47;99742.22;5011440;28;20509;-89
2022/01/03 06:15:44;;;;;;;36.13;22.17;;;;;;;4.65;71.41;99618.47;5011592;28;20032;-89
2022/01/03 06:18:13;;;;;;;39.90;18.90;;;;;;;4.86;71.37;99697.63;5011509;28;20026;-89
2022/01/03 06:20:40;;;;;;;54.63;21.38;;;;;;;5.26;71.10;99777.81;5011599;28;20162;-87
2022/01/03 06:23:07;;;;;;;35.20;19.20;;;;;;;5.52;71.04;99783.28;5011541;28;20104;-85
2022/01/03 06:25:33;;;;;;;47.25;22.23;;;;;;;4.71;71.10;99665.81;5011458;28;20030;-83
2022/01/03 06:27:58;;;;;;;56.40;23.08;;;;;;;5.40;71.28;99777.38;4993669;28;20461;-81
2022/01/03 06:30:24;;;;;;;62.30;26.48;;;;;;;4.69;71.55;99659.06;5011326;28;20097;-83
2022/01/03 06:32:49;;;;;;;45.72;22.40;;;;;;;4.52;71.13;99629.22;5011350;28;20061;-81
2022/01/03 06:35:14;;;;;;;29.70;18.25;;;;;;;4.95;71.15;99696.78;4993526;28;20092;-81
2022/01/03 06:37:40;;;;;;;52.20;21.25;;;;;;;4.07;70.81;99540.03;4993659;28;20045;-85
2022/01/03 06:40:06;;;;;;;45.72;20.17;;;;;;;4.46;70.67;99598.38;5011200;28;20088;-82
2022/01/03 06:42:33;;;;;;;52.95;23.20;;;;;;;5.23;70.94;99710.03;5010909;28;20079;-84
2022/01/03 06:44:59;;;;;;;38.20;22.50;;;;;;;5.20;70.94;99700.66;4993509;28;20502;-84
2022/01/03 06:47:25;;;;;;;39.55;21.17;;;;;;;5.43;70.84;99746.50;4993567;28;20022;-81
2022/01/03 06:49:51;;;;;;;45.28;23.20;;;;;;;4.35;70.57;99564.50;5011171;28;20423;-85
2022/01/03 06:52:17;;;;;;;43.92;25.13;;;;;;;5.33;70.71;99729.16;5011036;28;20037;-81
2022/01/03 06:54:42;;;;;;;41.60;25.83;;;;;;;5.58;70.62;99746.06;5011067;28;20064;-83
2022/01/03 06:57:09;;;;;;;45.45;24.77;;;;;;;4.64;70.57;99582.81;5011224;28;20058;-82
2022/01/03 06:59:34;;;;;;;50.00;28.88;;;;;;;5.69;70.11;99753.75;5011049;28;20503;-84
2022/01/03 07:02:00;;;;;;;45.72;27.55;;;;;;;5.74;70.29;99752.38;4993284;28;20104;-85
2022/01/03 07:04:25;;;;;;;41.03;26.45;;;;;;;4.42;69.95;99521.16;5010877;28;20014;-85
2022/01/03 07:06:51;;;;;;;41.17;27.35;;;;;;;5.22;70.09;99630.66;5012576;28;20060;-83
2022/01/03 07:09:16;;;;;;;51.65;33.85;;;;;;;5.62;69.78;99690.63;5014518;28;20033;-82
2022/01/03 07:11:42;;;;;;;51.88;32.30;;;;;;;5.50;69.81;99678.69;5014651;28;20474;-85
2022/01/03 07:19:56;;;;;;;51.22;32.70;;;;;;;5.27;69.63;99601.44;5014488;28;20163;-86
2022/01/03 07:22:23;;;;;;;50.55;29.63;;;;;;;6.01;69.69;99706.28;5014375;28;20137;-84
2022/01/03 07:24:50;;;;;;;47.58;32.00;;;;;;;6.26;69.44;99742.28;5014199;28;20026;-85
2022/01/03 07:27:15;;;;;;;53.58;34.30;;;;;;;5.71;69.46;99641.81;5014165;28;20028;-85
2022/01/03 07:29:42;;;;;;;57.83;37.88;;;;;;;6.40;68.81;99737.53;5014159;28;20021;-83
2022/01/03 07:32:09;;;;;;;53.40;33.58;;;;;;;5.90;68.99;99673.19;5014232;28;20107;-85
2022/01/03 07:34:34;;;;;;;54.60;35.25;;;;;;;5.18;69.16;99527.19;5013898;28;20025;-86
2022/01/03 07:37:00;;;;;;;51.58;34.47;;;;;;;6.49;68.79;99741.91;5013833;28;20030;-85
2022/01/03 07:39:25;;;;;;;53.05;34.13;;;;;;;5.39;68.82;99561.84;5013844;28;20037;-85
2022/01/03 07:41:51;;;;;;;48.50;32.78;;;;;;;5.06;69.25;99508.22;5013878;28;20104;-85
2022/01/03 07:44:16;;;;;;;42.38;31.30;;;;;;;5.83;69.02;99622.31;5013990;28;20112;-84
2022/01/03 07:46:42;;;;;;;45.00;31.52;;;;;;;5.30;69.45;99549.63;5013824;28;20041;-85
2022/01/03 07:49:07;;;;;;;50.35;33.40;;;;;;;5.00;69.37;99493.09;5013688;28;20030;-85
2022/01/03 07:51:33;;;;;;;47.95;35.15;;;;;;;6.52;69.53;99752.91;5013847;28;20112;-85
2022/01/03 07:53:58;;;;;;;43.05;31.58;;;;;;;5.66;69.65;99599.50;5013602;28;20109;-84
2022/01/03 07:56:24;;;;;;;44.92;30.92;;;;;;;6.55;69.57;99764.91;5013464;28;20037;-85
2022/01/03 07:58:50;;;;;;;52.22;36.22;;;;;;;5.15;69.75;99540.56;5013290;28;20037;-83
2022/01/03 08:01:15;;;;;;;61.72;40.92;;;;;;;6.56;69.68;99753.44;5013462;28;20030;-86
2022/01/03 08:03:41;;;;;;;61.78;42.67;;;;;;;5.47;69.99;99587.31;4995837;28;20036;-85
2022/01/03 08:06:09;;;;;;;60.38;40.08;;;;;;;6.57;70.30;99758.56;5013288;28;20047;-84
2022/01/03 08:08:35;;;;;;;56.03;35.75;;;;;;;5.75;69.94;99606.47;5012967;28;20080;-85
2022/01/03 08:11:01;;;;;;;56.65;36.03;;;;;;;5.64;69.73;99588.34;4995691;28;20030;-85
2022/01/03 08:13:26;;;;;;;52.83;33.80;;;;;;;6.15;70.59;99648.13;5013039;28;20097;-83
2022/01/03 08:15:52;;;;;;;51.92;32.65;;;;;;;5.90;69.67;99583.25;5013239;28;20487;-85
2022/01/03 08:18:17;;;;;;;53.83;36.42;;;;;;;6.88;70.24;99743.31;5012883;28;20025;-85
2022/01/03 08:20:43;;;;;;;55.97;37.17;;;;;;;6.10;70.52;99597.09;5013040;28;20088;-85
2022/01/03 08:23:08;;;;;;;55.47;36.42;;;;;;;6.16;70.01;99594.72;5012956;28;20060;-86
2022/01/03 08:25:37;;;;;;;49.38;32.40;;;;;;;6.04;70.26;99591.47;5012992;28;20017;-82
2022/01/03 08:28:07;;;;;;;52.15;35.10;;;;;;;7.11;70.51;99722.69;5013055;28;20040;-85
2022/01/03 08:30:33;;;;;;;59.85;38.28;;;;;;;5.57;70.38;99451.09;5012994;28;20072;-85
2022/01/03 08:32:59;;;;;;;56.60;35.83;;;;;;;6.45;70.62;99570.06;5012975;28;20109;-85
2022/01/03 08:35:25;;;;;;;47.42;30.30;;;;;;;6.05;70.53;99490.09;5012846;28;20033;-85
2022/01/03 08:37:51;;;;;;;48.10;34.03;;;;;;;7.03;70.21;99638.63;5012897;28;20419;-85
2022/01/03 08:40:17;;;;;;;47.20;32.53;;;;;;;7.43;70.93;99682.75;4995136;28;20025;-85
2022/01/03 08:42:42;;;;;;;44.15;28.42;;;;;;;7.71;70.79;99709.69;5012669;28;20029;-86
2022/01/03 08:45:08;;;;;;;42.08;27.90;;;;;;;7.48;70.91;99659.47;5012545;28;20022;-85
2022/01/03 08:47:34;;;;;;;42.97;29.20;;;;;;;6.31;71.09;99450.81;5012385;28;20109;-84
2022/01/03 08:50:00;;;;;;;35.92;25.98;;;;;;;7.13;70.99;99567.63;5012578;28;20060;-85
2022/01/03 08:52:25;;;;;;;39.72;28.63;;;;;;;7.79;71.25;99662.41;5012446;28;20487;-85
2022/01/03 08:54:50;;;;;;;38.92;29.60;;;;;;;7.82;70.84;99653.38;5012502;28;20430;-85
2022/01/03 08:57:16;;;;;;;41.95;32.13;;;;;;;6.72;71.16;99465.03;4994817;28;20116;-84
2022/01/03 08:59:42;;;;;;;35.55;26.02;;;;;;;8.15;71.19;99689.34;5012641;28;20018;-85
2022/01/03 09:02:07;;;;;;;37.90;27.63;;;;;;;8.15;71.45;99689.34;5012462;28;20084;-85
2022/01/03 09:04:33;;;;;;;37.28;27.42;;;;;;;7.92;71.73;99635.69;5012341;28;20022;-84
2022/01/03 09:06:59;;;;;;;35.78;27.13;;;;;;;7.91;71.90;99624.34;5012018;28;20033;-84
2022/01/03 09:09:27;;;;;;;29.08;23.65;;;;;;;8.33;71.43;99663.00;5012020;28;20477;-84
2022/01/03 09:11:53;;;;;;;34.47;26.17;;;;;;;8.21;71.54;99637.94;5012202;28;20057;-85
2022/01/03 09:14:18;;;;;;;34.53;26.30;;;;;;;8.14;71.60;99590.38;5012169;28;20068;-84
2022/01/03 09:16:43;;;;;;;37.88;29.05;;;;;;;7.88;71.72;99545.81;5012107;28;20041;-85
2022/01/03 09:19:09;;;;;;;40.03;30.65;;;;;;;7.01;71.73;99394.66;5011916;28;20038;-82
2022/01/03 09:21:34;;;;;;;38.65;29.50;;;;;;;8.41;71.96;99610.38;5012013;28;20033;-83
2022/01/03 09:29:30;;;;;;;34.42;27.67;;;;;;;8.38;71.41;99579.16;5011689;28;20537;-83
2022/01/03 09:31:56;;;;;;;38.55;29.63;;;;;;;8.65;71.46;99608.75;5011415;28;20022;-83
2022/01/03 09:34:21;;;;;;;31.63;26.33;;;;;;;8.35;71.37;99576.03;5011660;28;20041;-82
2022/01/03 09:36:46;;;;;;;35.78;28.35;;;;;;;8.64;70.89;99570.28;5011818;28;20475;-82
2022/01/03 09:39:12;;;;;;;29.85;25.13;;;;;;;8.11;70.72;99469.75;5011827;28;20022;-83
2022/01/03 09:41:44;;;;;;;35.85;28.55;;;;;;;8.91;70.32;99590.97;5011744;28;20091;-83
2022/01/03 09:44:11;;;;;;;36.70;29.00;;;;;;;8.98;70.09;99596.44;5011657;28;20033;-81
2022/01/03 09:46:42;;;;;;;45.55;35.80;;;;;;;9.06;69.99;99591.97;5011722;28;20530;-83
2022/01/03 09:49:12;;;;;;;47.83;36.03;;;;;;;9.11;69.98;99579.13;5011846;28;20362;-82
2022/01/03 09:51:40;;;;;;;48.88;36.78;;;;;;;8.37;69.66;99451.22;5011891;28;20034;-83
2022/01/03 09:54:11;;;;;;;46.58;34.72;;;;;;;7.53;69.83;99306.94;4992651;28;20435;-83
2022/01/03 09:56:38;;;;;;;38.30;31.65;;;;;;;8.43;69.52;99433.94;5011447;28;20030;-82
2022/01/03 09:59:05;;;;;;;37.38;29.30;;;;;;;9.39;69.24;99569.03;5011419;28;20030;-82
2022/01/03 10:01:32;;;;;;;40.40;31.83;;;;;;;8.17;69.25;99369.16;5011587;28;20052;-82
2022/01/03 10:03:58;;;;;;;52.63;29.15;;;;;;;9.56;68.88;99569.78;5011357;28;20026;-83
2022/01/03 10:06:25;;;;;;;33.08;26.70;;;;;;;9.48;68.29;99548.72;5011779;28;20033;-82
2022/01/03 10:08:50;;;;;;;34.80;26.77;;;;;;;9.40;68.39;99520.59;5011383;28;20509;-81
2022/01/03 10:11:18;;;;;;;27.27;21.55;;;;;;;9.72;67.81;99561.00;5011584;28;20030;-82
2022/01/03 10:13:43;;;;;;;23.83;20.35;;;;;;;9.78;67.87;99536.59;4993712;28;20030;-82
2022/01/03 10:16:09;;;;;;;22.98;19.38;;;;;;;9.44;67.79;99457.81;5011411;28;20032;-82
2022/01/03 10:18:34;;;;;;;27.33;21.88;;;;;;;9.67;67.45;99479.81;5011249;28;20495;-83
2022/01/03 10:21:04;;;;;;;28.88;23.13;;;;;;;10.09;67.26;99528.66;5011266;28;20443;-82
2022/01/03 10:23:31;;;;;;;27.27;23.38;;;;;;;8.88;67.16;99309.59;5011199;28;20537;-85
2022/01/03 10:26:19;;;;;;;32.10;25.25;;;;;;;10.28;66.93;99509.75;5011129;28;20030;-85
2022/01/03 10:28:44;;;;;;;25.17;20.00;;;;;;;9.63;66.38;99393.31;5011092;28;20033;-86
2022/01/03 10:31:15;;;;;;;27.75;22.70;;;;;;;10.37;66.41;99489.38;5011234;28;20470;-86
2022/01/03 10:33:41;;;;;;;28.75;22.73;;;;;;;10.35;66.77;99462.34;5011228;28;20105;-85
2022/01/03 10:36:11;;;;;;;27.85;21.52;;;;;;;10.19;66.60;99418.44;5011235;28;20091;-85
2022/01/03 10:38:38;;;;;;;27.88;21.88;;;;;;;10.82;66.21;99489.31;5011011;28;20022;-85
2022/01/03 10:41:11;;;;;;;34.10;24.42;;;;;;;10.96;65.08;99484.22;4993780;28;20037;-85
2022/01/03 10:43:37;;;;;;;26.95;21.60;;;;;;;9.94;65.63;99304.41;5015378;28;20033;-86
2022/01/03 10:46:18;;;;;;;28.67;23.52;;;;;;;10.78;65.34;99421.19;5014861;28;20022;-85
2022/01/03 10:48:45;;;;;;;27.35;22.45;;;;;;;11.22;65.77;99478.50;5014824;28;20478;-85
2022/01/03 10:51:10;;;;;;;32.42;26.88;;;;;;;11.27;64.87;99462.91;5014840;28;20041;-84
2022/01/03 10:53:41;;;;;;;30.83;26.17;;;;;;;10.57;65.14;99370.94;5014906;28;22044;-85
2022/01/03 10:56:34;;;;;;;36.58;28.15;;;;;;;11.22;65.40;99444.97;5014856;28;20029;-85
2022/01/03 10:59:21;;;;;;;34.63;27.58;;;;;;;10.99;65.12;99396.69;4997219;28;20033;-86
2022/01/03 11:01:52;;;;;;;34.97;27.90;;;;;;;10.63;65.17;99365.75;5014464;28;20120;-85
2022/01/03 11:04:30;;;;;;;33.80;27.50;;;;;;;10.92;65.40;99433.56;5014301;28;20022;-85
2022/01/03 11:13:07;;;;;;;32.55;25.58;;;;;;;11.23;66.43;99422.00;5014429;28;20048;-85
2022/01/03 11:15:34;;;;;;;29.73;25.02;;;;;;;11.29;66.51;99413.34;5014362;28;20030;-85
2022/01/03 11:18:22;;;;;;;28.30;22.85;;;;;;;11.35;66.27;99402.84;4996827;28;20024;-85
2022/01/03 11:21:19;;;;;;;25.98;21.98;;;;;;;11.42;66.82;99411.66;5014293;28;20415;-85
2022/01/03 11:24:01;;;;;;;27.55;21.73;;;;;;;10.74;66.33;99283.44;5014335;28;20095;-82
2022/01/03 11:26:30;;;;;;;28.40;23.50;;;;;;;10.57;66.37;99250.31;4996552;28;20033;-81
2022/01/03 11:28:56;;;;;;;29.20;20.77;;;;;;;11.34;65.84;99344.88;4996484;28;20030;-83
2022/01/03 11:31:23;;;;;;;24.02;19.27;;;;;;;11.73;65.45;99392.03;5014170;28;20026;-82
2022/01/03 11:33:51;;;;;;;26.13;18.63;;;;;;;11.78;65.91;99392.31;5013991;28;20032;-82
2022/01/03 11:36:19;;;;;;;18.77;16.55;;;;;;;11.39;65.84;99319.50;4996416;28;20065;-82
2022/01/03 11:38:45;;;;;;;21.15;17.30;;;;;;;11.88;65.78;99381.41;5014120;28;20025;-82
2022/01/03 11:41:11;;;;;;;25.58;17.83;;;;;;;11.93;65.62;99382.50;5013900;28;20109;-81
2022/01/03 11:43:40;;;;;;;16.75;12.27;;;;;;;12.02;65.85;99376.06;5013998;28;20022;-81
2022/01/03 11:46:06;;;;;;;19.33;14.25;;;;;;;12.08;65.28;99388.53;5013690;28;20026;-82
2022/01/03 11:48:32;;;;;;;14.18;12.05;;;;;;;11.72;65.32;99322.44;4996026;28;20037;-81
2022/01/03 11:51:07;;;;;;;14.10;11.48;;;;;;;11.09;64.75;99167.34;5014105;28;20033;-82